Time;durP1;ratioP1;P1;durP2;ratioP2;P2;SDS_P1;SDS_P2;PMS_P1;PMS_P2;Temp;Humidity;BMP_temperature;BMP_pressure;BME280_temperature;BME280_humidity;BME280_pressure;Samples;Min_cycle;Max_cycle;Signal;HPM_P1;HPM_P2
2022/05/05 00:02:07;;;;;;;26.57;15.60;;;14.90;99.90;;;15.47;nan;100783.47;4992432;28;20629;-70
2022/05/05 00:04:34;;;;;;;25.57;15.37;;;14.90;99.90;;;15.46;nan;100784.44;4993548;28;21071;-68
2022/05/05 00:07:03;;;;;;;27.77;16.60;;;14.90;99.90;;;15.42;nan;100791.72;4993904;28;20630;-68
2022/05/05 00:09:31;;;;;;;28.63;15.57;;;14.90;99.90;;;15.47;nan;100797.47;4985941;28;20646;-67
2022/05/05 00:14:44;;;;;;;27.30;15.73;;;14.90;99.90;;;15.40;nan;100798.09;4991557;28;20681;-67
2022/05/05 00:17:11;;;;;;;22.57;14.70;;;14.90;99.90;;;15.43;nan;100801.34;4976325;28;20618;-67
2022/05/05 00:19:41;;;;;;;23.40;14.50;;;14.90;99.90;;;15.45;nan;100802.03;4993916;28;20634;-67
2022/05/05 00:22:10;;;;;;;25.50;15.67;;;14.90;99.90;;;15.38;nan;100795.59;4992888;28;20634;-67
2022/05/05 00:24:38;;;;;;;30.87;17.90;;;14.90;99.90;;;15.40;nan;100796.31;4994152;28;21068;-67
2022/05/05 00:27:07;;;;;;;25.67;15.23;;;14.90;99.90;;;15.35;nan;100801.13;4976510;28;20633;-67
2022/05/05 00:29:34;;;;;;;29.43;16.27;;;14.80;99.90;;;15.33;nan;100794.38;4988131;28;20692;-69
2022/05/05 00:32:01;;;;;;;27.10;16.90;;;14.80;99.90;;;15.30;nan;100798.09;4993097;28;20625;-68
2022/05/05 00:34:28;;;;;;;28.50;17.00;;;14.80;99.90;;;15.31;nan;100806.81;4992306;28;20665;-68
2022/05/05 00:36:55;;;;;;;28.60;17.23;;;14.80;99.90;;;15.31;nan;100796.31;4994583;28;20637;-67
2022/05/05 00:39:22;;;;;;;28.67;16.77;;;14.80;99.90;;;15.31;nan;100794.47;4985590;28;20635;-67
2022/05/05 00:41:50;;;;;;;32.87;18.90;;;14.80;99.90;;;15.34;nan;100802.09;4974037;28;20622;-67
2022/05/05 00:44:17;;;;;;;26.70;15.97;;;14.80;99.90;;;15.38;nan;100794.78;4990433;28;20618;-67
2022/05/05 00:46:51;;;;;;;24.47;14.70;;;14.90;99.90;;;15.37;nan;100801.84;4991548;28;20630;-67
2022/05/05 00:49:19;;;;;;;25.77;15.20;;;14.80;99.90;;;15.30;nan;100800.72;4976151;28;20626;-67
2022/05/05 00:51:46;;;;;;;24.30;15.43;;;14.80;99.90;;;15.29;nan;100799.03;4993397;28;21423;-69
2022/05/05 00:54:13;;;;;;;24.87;15.17;;;14.70;99.90;;;15.26;nan;100801.97;4994430;28;21249;-66
2022/05/05 00:56:44;;;;;;;23.33;14.87;;;14.70;99.90;;;15.20;nan;100799.03;4992597;28;20649;-70
2022/05/05 00:59:12;;;;;;;28.07;15.67;;;14.70;99.90;;;15.15;nan;100798.63;4991539;28;21189;-68
2022/05/05 01:01:39;;;;;;;25.07;15.93;;;14.60;99.90;;;15.15;nan;100801.25;4976400;28;20700;-67
2022/05/05 01:04:07;;;;;;;27.43;14.90;;;14.60;99.90;;;15.15;nan;100796.81;4995340;28;20626;-69
2022/05/05 01:06:35;;;;;;;24.17;14.07;;;14.60;99.90;;;15.14;nan;100797.78;4958847;28;21042;-70
2022/05/05 01:09:06;;;;;;;25.37;15.23;;;14.60;99.90;;;15.12;nan;100799.72;4973755;28;20638;-67
2022/05/05 01:11:33;;;;;;;25.57;14.87;;;14.60;99.90;;;15.14;nan;100789.88;4974405;28;20626;-69
2022/05/05 01:14:00;;;;;;;27.87;16.03;;;14.60;99.90;;;15.13;nan;100790.88;4986680;28;20641;-67
2022/05/05 01:16:27;;;;;;;25.70;15.70;;;14.60;99.90;;;15.14;nan;100792.53;4970916;28;20675;-68
2022/05/05 01:18:55;;;;;;;27.47;15.87;;;14.60;99.90;;;15.17;nan;100794.06;4992038;28;20711;-68
2022/05/05 01:21:23;;;;;;;28.97;17.23;;;14.70;99.90;;;15.20;nan;100788.53;4993095;28;20626;-66
2022/05/05 01:23:51;;;;;;;26.80;16.93;;;14.70;99.90;;;15.25;nan;100796.81;4991664;28;21194;-68
2022/05/05 01:29:16;;;;;;;27.83;15.70;;;14.80;99.90;;;15.30;nan;100792.84;4904538;28;20638;-68
2022/05/05 01:31:44;;;;;;;28.67;17.50;;;14.80;99.90;;;15.34;nan;100791.59;4976189;28;20635;-68
2022/05/05 01:34:11;;;;;;;29.13;16.53;;;14.90;99.90;;;15.38;nan;100795.59;4974624;28;20630;-70
2022/05/05 01:36:38;;;;;;;27.40;16.60;;;14.90;99.90;;;15.39;nan;100792.03;5009876;23;20685;-66
2022/05/05 01:39:05;;;;;;;25.77;15.40;;;14.90;99.90;;;15.42;nan;100804.88;5002827;28;20691;-66
2022/05/05 01:41:32;;;;;;;23.67;15.20;;;14.90;99.90;;;15.40;nan;100801.56;5011554;28;20610;-68
2022/05/05 01:44:00;;;;;;;22.27;14.07;;;14.90;99.90;;;15.44;nan;100808.22;5011532;28;20633;-68
2022/05/05 01:46:26;;;;;;;21.27;13.37;;;14.90;99.90;;;15.45;nan;100809.06;5018883;28;20665;-66
2022/05/05 01:48:54;;;;;;;24.27;15.10;;;14.90;99.90;;;15.42;nan;100804.88;5023166;28;20651;-66
2022/05/05 01:51:20;;;;;;;22.83;13.87;;;14.90;99.90;;;15.41;nan;100813.75;5030953;28;20612;-66
2022/05/05 01:53:47;;;;;;;24.17;14.53;;;14.90;99.90;;;15.37;nan;100804.47;5030422;28;20640;-68
2022/05/05 01:56:14;;;;;;;23.60;14.50;;;14.90;99.90;;;15.37;nan;100808.91;5030129;28;20685;-66
2022/05/05 01:58:42;;;;;;;23.47;14.87;;;14.90;99.90;;;15.34;nan;100806.53;5030380;28;20636;-69
2022/05/05 02:01:11;;;;;;;26.93;14.47;;;14.80;99.90;;;15.37;nan;100811.53;5031423;28;20653;-69
2022/05/05 02:03:38;;;;;;;23.80;14.00;;;14.90;99.90;;;15.37;nan;100817.63;5013218;28;20629;-67
2022/05/05 02:06:07;;;;;;;22.07;13.80;;;14.90;99.90;;;15.37;nan;100817.63;5032318;28;21208;-67
2022/05/05 02:08:34;;;;;;;24.73;15.00;;;14.90;99.90;;;15.35;nan;100813.47;5030856;28;20701;-69
2022/05/05 02:11:01;;;;;;;22.43;13.27;;;14.80;99.90;;;15.34;nan;100819.66;5012581;28;20663;-67
2022/05/05 02:13:28;;;;;;;19.97;13.27;;;14.80;99.90;;;15.33;nan;100813.56;5030838;28;20620;-69
2022/05/05 02:15:55;;;;;;;22.37;13.57;;;14.80;99.90;;;15.30;nan;100818.28;5028732;28;21432;-66
2022/05/05 02:18:22;;;;;;;22.67;14.43;;;14.80;99.90;;;15.31;nan;100812.06;5013837;28;20625;-68
2022/05/05 02:20:49;;;;;;;26.60;15.67;;;14.80;99.90;;;15.32;nan;100809.31;5018778;28;20632;-66
2022/05/05 02:23:15;;;;;;;23.20;13.93;;;14.80;99.90;;;15.36;nan;100805.44;5029985;28;20632;-67
2022/05/05 02:25:43;;;;;;;21.60;13.77;;;14.90;99.90;;;15.40;nan;100812.06;5028763;28;21315;-66
2022/05/05 02:28:10;;;;;;;22.70;13.97;;;14.90;99.90;;;15.41;nan;100812.91;5030850;28;21152;-63
2022/05/05 02:30:37;;;;;;;23.60;14.20;;;14.90;99.90;;;15.44;nan;100817.91;5030271;28;21239;-67
2022/05/05 02:33:04;;;;;;;18.97;11.90;;;14.90;99.90;;;15.41;nan;100815.53;5031100;28;20632;-66
2022/05/05 02:35:31;;;;;;;22.27;13.10;;;14.90;99.90;;;15.45;nan;100815.16;5030599;28;20721;-67
2022/05/05 02:40:44;;;;;;;21.00;13.00;;;14.90;99.90;;;15.38;nan;100813.19;5010439;28;20634;-66
2022/05/05 02:43:11;;;;;;;19.07;11.63;;;14.90;99.90;;;15.38;nan;100803.50;5026999;28;20629;-67
2022/05/05 02:45:38;;;;;;;21.03;13.67;;;14.90;99.90;;;15.37;nan;100811.53;5030825;28;20643;-66
2022/05/05 02:48:05;;;;;;;18.87;11.50;;;14.90;99.90;;;15.37;nan;100808.91;5030528;28;20648;-66
2022/05/05 02:50:32;;;;;;;19.33;12.17;;;14.90;99.90;;;15.39;nan;100820.09;5031117;28;21152;-70
2022/05/05 02:54:47;;;;;;;20.73;12.40;;;14.90;99.90;;;15.33;nan;100816.22;5030152;28;20640;-67
2022/05/05 02:55:50;;;;;;;20.43;12.83;;;14.80;99.90;;;15.33;nan;100820.66;5029399;28;20924;-66
2022/05/05 02:58:17;;;;;;;19.20;12.10;;;14.80;99.90;;;15.27;nan;100819.38;5030120;28;20624;-69
2022/05/05 03:00:43;;;;;;;20.00;12.57;;;14.80;99.90;;;15.22;nan;100818.13;5029830;28;21108;-66
2022/05/05 03:03:10;;;;;;;26.07;13.80;;;14.70;99.90;;;15.19;nan;100821.88;5030480;28;21001;-66
2022/05/05 03:05:38;;;;;;;19.63;12.60;;;14.70;99.90;;;15.24;nan;100813.56;5028219;28;20652;-67
2022/05/05 03:08:05;;;;;;;24.97;13.67;;;14.70;99.90;;;15.20;nan;100815.66;5029610;28;20617;-67
2022/05/05 03:10:32;;;;;;;25.67;15.70;;;14.70;99.90;;;15.17;nan;100810.66;5025869;28;21231;-65
2022/05/05 03:12:59;;;;;;;23.90;14.90;;;14.70;99.90;;;15.19;nan;100813.13;5027711;28;20633;-67
2022/05/05 03:15:26;;;;;;;23.57;13.10;;;14.70;99.90;;;15.18;nan;100820.19;5020442;28;20684;-67
2022/05/05 03:17:53;;;;;;;20.90;12.30;;;14.70;99.90;;;15.16;nan;100819.50;5026696;28;20755;-68
2022/05/05 03:20:20;;;;;;;24.10;13.23;;;14.70;99.90;;;15.10;nan;100822.66;5029789;28;20620;-66
2022/05/05 03:22:48;;;;;;;20.17;12.60;;;14.60;99.90;;;15.09;nan;100823.66;5030812;28;20612;-69
2022/05/05 03:25:15;;;;;;;24.17;12.47;;;14.60;99.90;;;15.11;nan;100826.13;5027914;28;20636;-66
2022/05/05 03:27:41;;;;;;;19.17;12.63;;;14.60;99.90;;;15.13;nan;100827.66;5010571;28;20632;-68
2022/05/05 03:30:10;;;;;;;21.50;12.33;;;14.60;99.90;;;15.10;nan;100827.91;5012027;28;20624;-67
2022/05/05 03:32:36;;;;;;;20.83;12.17;;;14.60;99.90;;;15.07;nan;100830.00;5017667;28;21157;-68
2022/05/05 03:35:04;;;;;;;21.27;11.57;;;14.60;99.90;;;15.09;nan;100828.06;5010060;28;20683;-69
2022/05/05 03:37:31;;;;;;;20.03;12.30;;;14.60;99.90;;;15.03;nan;100825.97;5010763;28;20983;-66
2022/05/05 03:39:58;;;;;;;18.80;12.53;;;14.50;99.90;;;14.97;nan;100829.94;5011416;28;20664;-66
2022/05/05 03:42:25;;;;;;;18.50;11.63;;;14.50;99.90;;;14.94;nan;100834.66;5017481;28;20629;-66
2022/05/05 03:44:52;;;;;;;18.17;12.20;;;14.40;99.90;;;14.92;nan;100826.06;5029004;28;20632;-66
2022/05/05 03:47:19;;;;;;;23.37;13.80;;;14.40;99.90;;;14.93;nan;100838.25;5029698;28;20685;-66
2022/05/05 03:49:46;;;;;;;19.13;11.83;;;14.40;99.90;;;14.98;nan;100838.66;5030594;28;20620;-67
2022/05/05 03:52:13;;;;;;;15.83;10.90;;;14.50;99.90;;;14.99;nan;100832.47;5029478;28;21210;-66
2022/05/05 03:54:41;;;;;;;14.97;9.40;;;14.50;99.90;;;14.95;nan;100844.22;5028711;28;20616;-73
2022/05/05 03:57:08;;;;;;;15.47;9.50;;;14.50;99.90;;;14.87;nan;100855.38;5029421;28;20667;-67
2022/05/05 03:59:35;;;;;;;16.20;9.73;;;14.40;99.90;;;14.82;nan;100854.13;5030176;28;20759;-66
2022/05/05 04:02:03;;;;;;;18.10;11.50;;;14.30;99.90;;;14.72;nan;100860.16;5012985;28;21001;-66
2022/05/05 04:04:30;;;;;;;17.13;9.93;;;14.20;99.90;;;14.70;nan;100859.44;5029276;28;20689;-66
2022/05/05 04:06:57;;;;;;;14.73;9.50;;;14.20;99.90;;;14.70;nan;100858.59;5028851;28;20663;-66
2022/05/05 04:09:24;;;;;;;21.93;10.57;;;14.20;99.90;;;14.71;nan;100868.16;5028659;28;21187;-66
2022/05/05 04:11:51;;;;;;;18.10;10.80;;;14.20;99.90;;;14.70;nan;100869.94;4991174;28;20648;-66
2022/05/05 04:14:17;;;;;;;17.13;10.97;;;14.20;99.90;;;14.73;nan;100868.88;5025634;28;20625;-67
2022/05/05 04:16:44;;;;;;;15.37;9.30;;;14.20;99.90;;;14.75;nan;100873.03;5030925;28;20676;-69
2022/05/05 04:19:11;;;;;;;17.00;10.17;;;14.30;99.90;;;14.78;nan;100872.75;5033201;28;20621;-64
2022/05/05 04:21:38;;;;;;;18.47;10.80;;;14.20;99.90;;;14.79;nan;100873.59;5015433;28;20632;-68
2022/05/05 04:24:06;;;;;;;18.07;9.90;;;14.30;99.90;;;14.78;nan;100871.91;5033786;28;20624;-66
2022/05/05 04:26:33;;;;;;;18.17;11.07;;;14.30;99.90;;;14.78;nan;100877.16;5033173;28;21069;-66
2022/05/05 04:29:01;;;;;;;13.40;9.03;;;14.30;99.90;;;14.81;nan;100884.78;5032577;28;20644;-69
2022/05/05 04:31:29;;;;;;;16.20;8.57;;;14.30;99.90;;;14.73;nan;100880.22;5032740;28;21128;-66
2022/05/05 04:33:57;;;;;;;16.20;9.67;;;14.30;99.90;;;14.73;nan;100884.63;5013888;28;20640;-66
2022/05/05 04:36:25;;;;;;;18.10;9.83;;;14.30;99.90;;;14.74;nan;100881.84;5033098;28;20672;-66
2022/05/05 04:38:52;;;;;;;16.87;10.07;;;14.30;99.90;;;14.75;nan;100885.31;5031937;28;20621;-68
2022/05/05 04:41:19;;;;;;;17.67;10.27;;;14.30;99.90;;;14.70;nan;100892.75;5029053;28;20686;-66
2022/05/05 04:43:46;;;;;;;15.77;9.90;;;14.20;99.90;;;14.70;nan;100892.75;5026954;28;20624;-68
2022/05/05 04:46:13;;;;;;;19.43;10.10;;;14.20;99.90;;;14.72;nan;100896.06;5025495;28;20652;-66
2022/05/05 04:48:40;;;;;;;14.47;9.30;;;14.30;99.90;;;14.71;nan;100895.25;5013130;28;20621;-69
2022/05/05 04:51:07;;;;;;;13.10;8.33;;;14.20;99.90;;;14.71;nan;100897.06;5014141;28;20633;-66
2022/05/05 04:53:34;;;;;;;14.37;9.20;;;14.20;99.90;;;14.69;nan;100902.41;5030561;28;20643;-66
2022/05/05 04:56:02;;;;;;;17.03;9.50;;;14.20;99.90;;;14.69;nan;100904.25;5031839;28;21302;-66
2022/05/05 04:58:28;;;;;;;16.70;9.03;;;14.20;99.90;;;14.67;nan;100909.59;5031586;28;21047;-66
2022/05/05 05:00:56;;;;;;;14.53;9.17;;;14.20;99.90;;;14.65;nan;100910.72;5013458;28;21211;-68
2022/05/05 05:03:39;;;;;;;14.70;8.80;;;14.20;99.90;;;14.70;nan;100911.13;5031013;28;21212;-65
2022/05/05 05:06:09;;;;;;;12.17;8.10;;;14.30;99.90;;;14.69;nan;100920.00;5031797;28;20652;-66
2022/05/05 05:08:37;;;;;;;9.50;7.40;;;14.20;99.90;;;14.65;nan;100918.59;5032360;28;21203;-66
2022/05/05 05:11:04;;;;;;;9.90;6.57;;;14.20;99.90;;;14.62;nan;100916.22;5032450;28;20639;-66
2022/05/05 05:13:31;;;;;;;11.00;6.60;;;14.20;99.90;;;14.57;nan;100921.84;5029831;28;20644;-67
2022/05/05 05:15:58;;;;;;;11.90;6.80;;;14.10;99.90;;;14.55;nan;100928.19;5013315;28;20666;-67
2022/05/05 05:18:25;;;;;;;11.17;7.77;;;14.10;99.90;;;14.56;nan;100929.84;5032039;28;20631;-68
2022/05/05 05:20:52;;;;;;;9.87;6.43;;;14.10;99.90;;;14.59;nan;100935.69;5031500;28;20978;-67
2022/05/05 05:23:20;;;;;;;8.83;6.10;;;14.10;99.90;;;14.45;nan;100932.53;5030974;28;20662;-65
2022/05/05 05:25:47;;;;;;;9.30;5.90;;;14.00;99.90;;;14.44;nan;100936.13;5032462;28;20652;-66
2022/05/05 05:28:14;;;;;;;10.90;6.30;;;14.00;99.90;;;14.35;nan;100937.72;5031326;28;20629;-67
2022/05/05 05:30:41;;;;;;;9.40;6.03;;;13.90;99.90;;;14.35;nan;100948.22;5031309;28;20632;-66
2022/05/05 05:33:09;;;;;;;11.17;6.30;;;13.90;99.90;;;14.31;nan;100944.16;5031480;28;20636;-67
2022/05/05 05:35:36;;;;;;;13.67;6.77;;;13.90;99.90;;;14.24;nan;100950.03;5012275;28;20676;-66
2022/05/05 05:38:03;;;;;;;9.10;6.77;;;13.80;99.90;;;14.20;nan;100949.47;5031679;28;20631;-66
2022/05/05 05:40:31;;;;;;;11.63;6.90;;;13.80;99.90;;;13.99;nan;100945.97;5030381;28;20645;-69
2022/05/05 05:42:58;;;;;;;12.67;6.00;;;13.60;99.90;;;14.06;nan;100943.66;5031448;28;21192;-69
2022/05/05 05:45:25;;;;;;;10.90;5.63;;;13.60;99.90;;;14.14;nan;100954.38;5010089;28;20641;-65
2022/05/05 05:47:52;;;;;;;12.10;6.97;;;13.70;99.90;;;14.22;nan;100951.94;5030610;28;20624;-69
2022/05/05 05:50:19;;;;;;;12.70;7.10;;;13.80;99.90;;;14.23;nan;100958.84;5031298;28;20628;-66
2022/05/05 05:52:47;;;;;;;14.70;6.97;;;13.80;99.90;;;14.23;nan;100956.22;5012732;28;20641;-70
2022/05/05 05:55:14;;;;;;;11.00;6.73;;;13.80;99.90;;;14.21;nan;100963.41;5013146;28;20639;-66
2022/05/05 05:57:42;;;;;;;10.03;6.70;;;13.80;99.90;;;14.21;nan;100960.78;5030947;28;20667;-67
2022/05/05 06:00:10;;;;;;;8.80;6.10;;;13.80;99.90;;;14.24;nan;100969.25;5017900;28;20644;-67
2022/05/05 06:05:22;;;;;;;12.83;7.30;;;13.70;99.90;;;14.14;nan;100978.00;5027431;28;20644;-65
2022/05/05 06:07:49;;;;;;;10.77;5.80;;;13.70;99.90;;;14.08;nan;100970.59;5032461;28;20608;-67
2022/05/05 06:10:19;;;;;;;9.00;6.13;;;13.70;99.90;;;14.14;nan;100980.63;5030150;28;20639;-66
2022/05/05 06:12:47;;;;;;;13.67;8.00;;;13.70;99.90;;;14.07;nan;100985.53;5028953;28;20625;-67
2022/05/05 06:15:14;;;;;;;10.13;6.77;;;13.70;99.90;;;14.16;nan;100991.81;5012466;28;20629;-68
2022/05/05 06:17:41;;;;;;;9.00;6.20;;;13.70;99.90;;;14.13;nan;100985.03;5012900;28;21271;-68
2022/05/05 06:20:09;;;;;;;9.87;6.53;;;13.80;99.90;;;14.20;nan;100990.63;5030293;28;20627;-66
2022/05/05 06:22:37;;;;;;;11.73;7.53;;;13.80;99.90;;;14.26;nan;100997.97;5031358;28;20636;-67
2022/05/05 06:25:06;;;;;;;17.30;9.60;;;13.80;99.90;;;14.19;nan;100997.66;5031742;28;20623;-66
2022/05/05 06:27:34;;;;;;;15.07;9.53;;;13.80;99.90;;;14.22;nan;100996.56;5031156;28;20636;-66
2022/05/05 06:30:02;;;;;;;14.77;9.00;;;13.80;99.90;;;14.27;nan;101004.91;5012540;28;20640;-66
2022/05/05 06:32:29;;;;;;;11.43;7.07;;;13.90;99.90;;;14.31;nan;101008.97;5030745;28;20612;-68
2022/05/05 06:34:56;;;;;;;11.40;7.60;;;13.90;99.90;;;14.37;nan;101005.84;5027843;28;20636;-67
2022/05/05 06:37:24;;;;;;;11.07;8.10;;;14.00;99.90;;;14.41;nan;101015.97;5012641;28;21263;-69
2022/05/05 06:39:51;;;;;;;13.30;9.27;;;14.00;99.90;;;14.38;nan;101015.38;5029256;28;20644;-67
2022/05/05 06:42:19;;;;;;;16.37;9.30;;;13.90;99.90;;;14.41;nan;101015.16;5031054;28;20647;-65
2022/05/05 06:44:46;;;;;;;16.30;9.27;;;14.00;99.90;;;14.40;nan;101010.84;5029518;28;20636;-68
2022/05/05 06:47:13;;;;;;;16.60;9.30;;;14.00;99.90;;;14.36;nan;101012.03;5030986;28;20652;-66
2022/05/05 06:49:40;;;;;;;13.37;8.27;;;13.90;99.90;;;14.35;nan;101019.09;5030566;28;21192;-67
2022/05/05 06:52:08;;;;;;;15.87;8.23;;;14.00;99.90;;;14.49;nan;101031.09;5030784;28;21211;-66
2022/05/05 06:54:52;;;;;;;10.40;7.07;;;14.10;99.90;;;14.48;nan;101042.56;4995817;28;20634;-69
2022/05/05 06:57:19;;;;;;;12.30;6.47;;;14.10;99.90;;;14.42;nan;101037.78;5012450;28;20665;-67
2022/05/05 06:59:46;;;;;;;18.13;7.60;;;14.00;99.90;;;14.27;nan;101037.22;5030081;28;20644;-67
2022/05/05 07:02:13;;;;;;;14.00;7.63;;;13.90;99.90;;;14.15;nan;101045.25;5020185;28;20624;-67
2022/05/05 07:07:27;;;;;;;13.20;7.70;;;13.60;99.90;;;14.03;nan;101042.66;5022827;28;20897;-67
2022/05/05 07:12:40;;;;;;;13.70;8.10;;;13.80;99.90;;;14.28;nan;101043.31;5025145;28;20648;-70
2022/05/05 07:15:08;;;;;;;15.90;8.97;;;13.90;99.90;;;14.26;nan;101051.31;5023024;28;20643;-65
2022/05/05 07:17:35;;;;;;;14.70;8.50;;;13.90;99.90;;;14.24;nan;101047.13;5020801;28;20676;-67
2022/05/05 07:20:02;;;;;;;14.67;9.07;;;13.80;99.90;;;14.22;nan;101041.19;5011727;28;20621;-66
2022/05/05 07:22:29;;;;;;;12.20;8.00;;;13.80;99.90;;;14.27;nan;101049.53;5018524;28;21172;-67
2022/05/05 07:24:56;;;;;;;14.63;10.20;;;13.90;99.90;;;14.31;nan;101056.22;5026212;28;20616;-66
2022/05/05 07:27:23;;;;;;;12.43;8.10;;;13.90;99.90;;;14.45;nan;101063.81;5023060;28;21439;-66
2022/05/05 07:29:50;;;;;;;12.10;6.20;;;14.00;99.90;;;14.43;nan;101056.06;5028541;28;20639;-69
2022/05/05 07:32:17;;;;;;;16.20;9.07;;;14.00;99.90;;;14.50;nan;101059.84;5029924;28;20629;-64
2022/05/05 07:34:44;;;;;;;19.67;10.10;;;14.10;99.90;;;14.61;nan;101058.97;5007786;28;20640;-69
2022/05/05 07:37:11;;;;;;;14.57;8.93;;;14.20;99.90;;;14.74;nan;101059.63;5026160;23;20689;-67
2022/05/05 07:39:39;;;;;;;15.70;9.10;;;14.40;99.90;;;14.81;nan;101059.97;5010078;28;20620;-68
2022/05/05 07:42:06;;;;;;;14.57;9.27;;;14.40;99.90;;;14.91;nan;101064.31;5010281;28;21041;-67
2022/05/05 07:44:33;;;;;;;18.83;9.27;;;14.50;99.90;;;15.13;nan;101069.47;5006103;28;21200;-67
2022/05/05 07:47:00;;;;;;;22.30;12.10;;;14.80;99.90;;;15.35;nan;101069.31;4997187;28;20662;-69
2022/05/05 07:49:27;;;;;;;17.20;10.30;;;15.00;99.90;;;15.59;nan;101068.22;4990261;28;20622;-68
2022/05/05 07:51:54;;;;;;;20.83;12.60;;;15.20;99.90;;;15.95;nan;101062.41;4993245;28;21193;-67
2022/05/05 07:54:42;;;;;;;21.63;13.80;;;15.60;99.90;;;16.33;nan;101071.22;4995162;28;20680;-67
2022/05/05 07:57:13;;;;;;;20.30;13.57;;;16.00;99.90;;;16.66;nan;101070.03;4993449;28;24463;-66
2022/05/05 07:59:44;;;;;;;16.10;11.30;;;16.60;99.90;;;16.99;nan;101069.59;4993217;28;20208;-67
2022/05/05 08:02:13;;;;;;;20.67;13.10;;;16.70;99.90;;;17.14;nan;101074.44;4986943;28;20963;-67
2022/05/05 08:04:42;;;;;;;16.50;12.20;;;16.90;99.90;;;17.12;nan;101074.59;4974144;28;20650;-64
2022/05/05 08:07:10;;;;;;;18.93;13.10;;;16.90;99.90;;;16.93;nan;101069.31;4975076;28;20643;-67
2022/05/05 08:09:38;;;;;;;22.50;13.00;;;16.60;99.90;;;16.66;nan;101070.03;4988182;28;20646;-67
2022/05/05 08:12:24;;;;;;;16.07;11.50;;;16.40;99.90;;;16.43;nan;101063.34;4974941;28;20639;-67
2022/05/05 08:14:51;;;;;;;17.77;11.50;;;16.10;99.90;;;16.42;nan;101069.56;4992932;28;20699;-67
2022/05/05 08:17:18;;;;;;;16.63;11.53;;;16.10;99.90;;;16.41;nan;101067.06;4997458;28;20724;-66
2022/05/05 08:19:45;;;;;;;23.87;13.57;;;16.10;99.90;;;16.41;nan;101069.69;4992854;28;20606;-67
2022/05/05 08:22:12;;;;;;;24.70;15.07;;;16.10;99.90;;;16.24;nan;101069.41;4978140;28;20638;-67
2022/05/05 08:30:10;;;;;;;16.00;12.40;;;15.90;99.90;;;15.94;nan;101071.25;4980469;28;20641;-67
2022/05/05 08:32:37;;;;;;;18.00;12.33;;;15.60;99.90;;;15.97;nan;101068.38;4989353;28;20650;-66
2022/05/05 08:35:05;;;;;;;18.73;11.80;;;15.70;99.90;;;15.80;nan;101077.72;4983691;28;20643;-64
2022/05/05 08:37:32;;;;;;;25.50;14.73;;;15.50;99.90;;;15.68;nan;101077.94;4980330;28;20745;-67
2022/05/05 08:39:59;;;;;;;24.40;13.90;;;15.40;99.90;;;15.69;nan;101077.84;4980785;28;20634;-66
2022/05/05 08:42:26;;;;;;;19.20;13.67;;;15.40;99.90;;;15.67;nan;101086.81;4982704;28;20641;-67
2022/05/05 08:44:53;;;;;;;22.10;12.97;;;15.30;99.90;;;15.74;nan;101088.78;4982712;28;20646;-67
2022/05/05 08:47:24;;;;;;;20.70;11.70;;;15.40;99.90;;;15.73;nan;101087.13;4989270;28;20658;-67
2022/05/05 08:49:58;;;;;;;30.27;14.37;;;15.40;99.90;;;15.53;nan;101099.34;4967600;28;20642;-67
2022/05/05 08:52:35;;;;;;;18.50;12.20;;;15.20;99.90;;;15.44;nan;101094.84;4991800;28;20626;-67
2022/05/05 08:55:03;;;;;;;27.23;14.03;;;15.10;99.90;;;15.43;nan;101101.09;4992902;28;20630;-66
2022/05/05 08:57:30;;;;;;;20.00;13.00;;;15.10;99.90;;;15.49;nan;101100.56;4991298;28;21244;-64
2022/05/05 08:59:58;;;;;;;22.20;13.07;;;15.10;99.90;;;15.53;nan;101104.59;4986076;28;20672;-67
2022/05/05 09:02:24;;;;;;;16.70;9.60;;;15.20;99.90;;;15.65;nan;101108.00;4989772;28;20622;-67
2022/05/05 09:04:52;;;;;;;20.47;11.20;;;15.20;99.90;;;15.75;nan;101111.50;4989444;28;20645;-67
2022/05/05 09:07:19;;;;;;;22.03;13.03;;;15.40;99.90;;;15.66;nan;101107.03;4988607;28;20662;-66
2022/05/05 09:09:49;;;;;;;17.90;11.60;;;15.30;99.90;;;15.65;nan;101104.53;4974438;28;20710;-66
2022/05/05 09:12:22;;;;;;;19.10;13.00;;;15.30;99.90;;;15.60;nan;101110.19;4972649;28;20627;-68
2022/05/05 09:14:53;;;;;;;18.13;10.90;;;15.30;99.90;;;15.67;nan;101113.13;4974360;28;20631;-68
2022/05/05 09:17:29;;;;;;;14.43;9.90;;;15.30;99.90;;;15.69;nan;101111.19;4980773;28;20677;-67
2022/05/05 09:19:57;;;;;;;20.40;11.87;;;15.30;99.90;;;15.71;nan;101109.25;4985492;28;20633;-67
2022/05/05 09:22:27;;;;;;;19.40;12.60;;;15.30;99.90;;;15.65;nan;101104.53;5012586;28;20626;-67
2022/05/05 09:24:59;;;;;;;16.70;11.23;;;15.30;99.90;;;15.66;nan;101103.56;5003263;28;20627;-67
2022/05/05 09:27:34;;;;;;;16.77;9.83;;;15.30;99.90;;;15.72;nan;101105.66;4973690;28;20662;-67
2022/05/05 09:30:14;;;;;;;16.80;10.40;;;15.30;99.90;;;15.78;nan;101103.31;4973648;28;20631;-67
2022/05/05 09:32:47;;;;;;;14.40;9.90;;;15.40;99.90;;;15.87;nan;101105.19;4993658;28;20712;-67
2022/05/05 09:35:17;;;;;;;14.30;9.87;;;15.50;99.90;;;15.87;nan;101096.44;4972275;28;20631;-67
2022/05/05 09:37:49;;;;;;;14.67;9.87;;;15.50;99.90;;;15.84;nan;101110.72;4971829;28;20671;-67
2022/05/05 09:40:20;;;;;;;15.83;10.40;;;15.40;99.90;;;15.95;nan;101112.41;4973001;28;20638;-67
2022/05/05 09:42:50;;;;;;;15.53;9.27;;;15.60;99.90;;;15.85;nan;101115.00;4973098;28;20658;-67
2022/05/05 09:45:24;;;;;;;20.20;10.37;;;15.50;99.90;;;15.97;nan;101115.75;4972274;28;20701;-67
2022/05/05 09:47:54;;;;;;;14.33;8.70;;;15.60;99.90;;;16.01;nan;101107.47;4980596;28;20712;-66
2022/05/05 09:50:24;;;;;;;18.17;10.33;;;15.60;99.90;;;16.10;nan;101106.63;4994273;28;21205;-67
2022/05/05 09:58:39;;;;;;;14.70;9.90;;;15.90;99.90;;;16.22;nan;101116.13;4973648;28;20675;-64
2022/05/05 10:01:12;;;;;;;17.60;10.03;;;15.80;99.90;;;16.20;nan;101111.94;4991877;28;20621;-64
2022/05/05 10:04:05;;;;;;;19.33;10.20;;;15.80;99.90;;;16.23;nan;101111.66;4972654;28;20646;-64
2022/05/05 10:06:47;;;;;;;14.93;8.93;;;15.80;99.90;;;16.28;nan;101106.81;4956243;28;20671;-67
2022/05/05 10:09:16;;;;;;;14.37;8.33;;;15.90;99.90;;;16.29;nan;101111.94;4972469;28;20629;-67
2022/05/05 10:11:43;;;;;;;12.43;8.97;;;15.90;99.90;;;16.37;nan;101119.19;4982820;28;20637;-67
2022/05/05 10:14:16;;;;;;;12.37;8.57;;;16.00;99.90;;;16.44;nan;101122.13;4991832;28;20626;-67
2022/05/05 10:16:43;;;;;;;15.93;8.00;;;16.10;99.90;;;16.45;nan;101121.97;4992972;28;21318;-67
2022/05/05 10:19:11;;;;;;;14.33;8.30;;;16.10;99.90;;;16.49;nan;101122.53;4996408;28;20622;-67
2022/05/05 10:22:07;;;;;;;13.40;9.13;;;16.10;99.90;;;16.51;nan;101121.47;4987888;28;21023;-64
2022/05/05 10:24:55;;;;;;;11.90;8.10;;;16.10;99.90;;;16.62;nan;101125.75;4971736;28;20638;-66
2022/05/05 10:27:22;;;;;;;13.03;8.40;;;16.20;99.90;;;16.70;nan;101125.91;4954023;28;20746;-67
2022/05/05 10:29:50;;;;;;;17.47;10.60;;;16.30;99.90;;;16.48;nan;101124.34;4955374;28;21222;-67
2022/05/05 10:32:22;;;;;;;15.10;10.10;;;16.20;99.90;;;16.57;nan;101131.44;4979028;28;20673;-66
2022/05/05 10:35:02;;;;;;;13.00;8.27;;;16.20;99.90;;;16.60;nan;101128.53;4990229;28;20630;-67
2022/05/05 10:37:36;;;;;;;19.80;10.20;;;16.20;99.90;;;16.67;nan;101132.31;4989692;28;20670;-64
2022/05/05 10:40:08;;;;;;;16.60;9.33;;;16.30;99.90;;;16.72;nan;101135.34;4981327;28;20630;-64
2022/05/05 10:42:40;;;;;;;15.17;10.40;;;16.30;99.90;;;16.77;nan;101129.66;4981174;28;20697;-64
2022/05/05 10:45:15;;;;;;;12.13;8.07;;;16.40;99.90;;;16.79;nan;101131.19;4979933;28;20642;-64
2022/05/05 10:48:06;;;;;;;13.23;9.10;;;16.40;99.90;;;16.83;nan;101122.03;4982247;28;20658;-64
2022/05/05 10:50:50;;;;;;;15.90;10.37;;;16.40;99.90;;;16.83;nan;101129.09;4967407;28;20635;-65